Time;durP1;ratioP1;P1;durP2;ratioP2;P2;SDS_P1;SDS_P2;PMS_P1;PMS_P2;Temp;Humidity;BMP_temperature;BMP_pressure;BME280_temperature;BME280_humidity;BME280_pressure;Samples;Min_cycle;Max_cycle;Signal;HPM_P1;HPM_P2
2022/06/13 00:01:48;;;;;;;3.05;2.08;;;;;;;17.47;87.26;95877.34;4955597;28;20189;-82
2022/06/13 00:04:13;;;;;;;2.15;1.98;;;;;;;17.41;88.19;95880.72;4970309;28;20177;-82
2022/06/13 00:06:39;;;;;;;4.30;2.30;;;;;;;17.32;88.19;95876.56;4954746;29;20221;-83
2022/06/13 00:09:05;;;;;;;5.95;2.40;;;;;;;17.34;87.20;95871.94;4938627;28;20198;-81
2022/06/13 00:11:31;;;;;;;3.08;2.10;;;;;;;17.31;85.64;95882.78;4919252;29;20182;-82
2022/06/13 00:13:57;;;;;;;6.90;2.22;;;;;;;17.18;85.72;95880.78;4936095;29;20213;-82
2022/06/13 00:16:22;;;;;;;3.83;2.25;;;;;;;17.04;85.40;95879.78;4918509;29;20178;-82
2022/06/13 00:18:48;;;;;;;6.95;1.90;;;;;;;16.78;84.71;95866.25;4902694;29;20225;-82
2022/06/13 00:21:35;;;;;;;5.38;2.28;;;;;;;17.04;84.44;95850.91;4918597;29;20189;-81
2022/06/13 00:24:01;;;;;;;2.92;1.98;;;;;;;17.00;83.58;95854.91;4917965;29;20208;-82
2022/06/13 00:26:28;;;;;;;4.40;2.08;;;;;;;17.01;84.47;95858.34;4911257;29;20347;-81
2022/06/13 00:28:54;;;;;;;5.93;3.08;;;;;;;16.98;85.00;95851.66;4931437;29;20201;-81
2022/06/13 00:31:19;;;;;;;2.95;2.08;;;;;;;16.93;86.00;95854.00;4937429;29;20193;-81
2022/06/13 00:33:45;;;;;;;4.85;2.17;;;;;;;17.05;85.68;95849.09;4920484;29;20569;-81
2022/06/13 00:36:10;;;;;;;3.65;2.25;;;;;;;16.85;88.00;95854.06;4936396;29;20182;-82
2022/06/13 00:38:39;;;;;;;3.47;1.90;;;;;;;16.73;87.84;95855.50;4936360;29;20236;-81
2022/06/13 00:41:12;;;;;;;1.95;1.85;;;;;;;16.59;87.39;95850.00;4921106;28;20267;-81
2022/06/13 00:43:40;;;;;;;3.20;2.03;;;;;;;16.91;87.64;95859.41;4920367;29;20185;-81
2022/06/13 00:46:20;;;;;;;1.83;1.70;;;;;;;16.95;86.76;95860.69;4922945;29;20276;-81
2022/06/13 00:48:47;;;;;;;3.40;2.20;;;;;;;16.76;85.02;95847.28;4938426;28;20271;-81
2022/06/13 00:51:12;;;;;;;3.72;2.00;;;;;;;16.68;87.09;95854.22;4939994;29;20244;-82
2022/06/13 00:53:37;;;;;;;4.75;2.28;;;;;;;16.46;87.83;95865.53;4923077;29;20189;-82
2022/06/13 00:56:11;;;;;;;2.88;1.88;;;;;;;16.47;87.04;95876.84;4923493;29;20189;-81
2022/06/13 00:58:40;;;;;;;2.58;2.38;;;;;;;16.49;86.27;95885.31;4923658;29;20241;-81
2022/06/13 01:01:06;;;;;;;3.42;2.20;;;;;;;16.49;87.10;95880.09;4939657;29;20259;-82
2022/06/13 01:03:32;;;;;;;4.00;2.22;;;;;;;16.45;88.52;95886.69;4939105;29;20225;-81
2022/06/13 01:06:00;;;;;;;3.30;2.05;;;;;;;16.19;90.11;95877.34;4938766;29;20185;-81
2022/06/13 01:08:27;;;;;;;4.72;2.28;;;;;;;16.37;90.25;95874.44;4938936;29;20189;-81
2022/06/13 01:13:52;;;;;;;3.70;1.80;;;;;;;16.65;84.88;95875.53;4941243;29;20213;-81
2022/06/13 01:16:43;;;;;;;2.97;1.95;;;;;;;16.57;84.79;95877.41;4923058;29;20661;-82
2022/06/13 01:19:09;;;;;;;3.28;2.00;;;;;;;16.67;84.97;95873.53;4938860;29;20217;-81
2022/06/13 01:21:42;;;;;;;2.65;2.13;;;;;;;16.62;85.89;95869.84;4954960;28;20191;-81
2022/06/13 01:24:39;;;;;;;4.72;2.13;;;;;;;16.66;86.55;95861.41;4919398;29;20198;-82
2022/06/13 01:27:18;;;;;;;3.40;2.22;;;;;;;16.64;86.45;95847.69;4919758;29;20636;-81
2022/06/13 01:29:50;;;;;;;2.10;1.90;;;;;;;16.60;86.72;95838.53;4927979;29;20190;-81
2022/06/13 01:32:51;;;;;;;5.88;2.17;;;;;;;16.52;86.90;95846.50;4958314;28;20240;-82
2022/06/13 01:35:54;;;;;;;3.60;2.22;;;;;;;16.49;86.60;95852.06;4944030;29;20177;-82
2022/06/13 01:38:32;;;;;;;5.80;2.25;;;;;;;16.42;86.41;95848.50;4940002;29;20205;-82
2022/06/13 01:41:07;;;;;;;4.82;2.35;;;;;;;16.31;87.09;95851.56;4922799;29;20189;-82
2022/06/13 01:43:45;;;;;;;5.00;2.33;;;;;;;16.30;87.11;95844.69;4922849;29;20181;-82
2022/06/13 01:46:23;;;;;;;4.95;2.22;;;;;;;16.38;86.66;95852.50;4938575;29;20256;-82
2022/06/13 01:48:59;;;;;;;8.82;2.60;;;;;;;16.32;87.01;95851.38;4935991;29;20213;-82
2022/06/13 01:51:31;;;;;;;13.38;2.60;;;;;;;16.36;85.98;95852.66;4937069;29;20193;-81
2022/06/13 01:54:26;;;;;;;4.03;2.50;;;;;;;16.35;86.24;95865.94;4905214;29;20213;-82
2022/06/13 01:56:57;;;;;;;3.47;2.50;;;;;;;16.36;86.71;95868.41;4938063;29;20201;-82
2022/06/13 01:59:27;;;;;;;3.95;2.20;;;;;;;16.38;86.41;95870.84;4938862;29;20206;-82
2022/06/13 02:02:02;;;;;;;2.90;1.90;;;;;;;16.50;86.60;95873.84;4921045;29;20178;-82
2022/06/13 02:04:59;;;;;;;4.70;2.58;;;;;;;16.58;86.25;95877.22;4935909;29;20181;-82
2022/06/13 02:07:28;;;;;;;5.05;2.17;;;;;;;16.42;87.30;95878.16;4937622;29;20192;-82
2022/06/13 02:10:03;;;;;;;3.55;2.05;;;;;;;16.46;86.66;95881.25;4920026;29;20190;-82
2022/06/13 02:12:32;;;;;;;5.10;2.50;;;;;;;16.52;85.52;95879.72;4935989;29;20193;-82
2022/06/13 02:15:29;;;;;;;5.63;2.75;;;;;;;16.34;84.79;95882.63;4919620;29;20210;-82
2022/06/13 02:18:00;;;;;;;3.10;2.30;;;;;;;16.33;85.13;95873.16;4897296;29;20314;-82
2022/06/13 02:20:31;;;;;;;5.22;2.50;;;;;;;16.25;84.65;95878.44;4886061;29;20186;-82
2022/06/13 02:23:01;;;;;;;5.97;2.40;;;;;;;16.27;83.61;95879.13;4873054;29;20214;-82
2022/06/13 02:25:30;;;;;;;8.43;2.70;;;;;;;16.15;82.84;95876.88;4918165;29;20179;-82
2022/06/13 02:28:11;;;;;;;3.33;2.38;;;;;;;16.17;82.80;95875.88;4897427;29;20219;-81
2022/06/13 02:30:40;;;;;;;3.80;2.50;;;;;;;16.19;82.59;95868.69;4898247;29;20739;-81
2022/06/13 02:33:29;;;;;;;4.95;2.53;;;;;;;16.00;83.17;95873.38;4897108;29;20202;-81
2022/06/13 02:36:33;;;;;;;6.05;2.72;;;;;;;15.95;83.91;95880.13;4879869;29;20359;-81
2022/06/13 02:39:06;;;;;;;5.90;2.88;;;;;;;15.83;84.40;95887.56;4895685;29;20215;-81
2022/06/13 02:41:44;;;;;;;5.68;2.63;;;;;;;15.73;84.88;95900.06;4880511;29;20183;-82
2022/06/13 02:44:15;;;;;;;5.32;2.50;;;;;;;15.77;84.16;95888.25;4879977;29;20540;-81
2022/06/13 02:46:44;;;;;;;4.90;2.70;;;;;;;15.59;83.78;95894.50;4878598;29;20623;-81
2022/06/13 02:49:18;;;;;;;4.13;2.85;;;;;;;15.55;83.95;95884.56;4879357;29;20289;-82
2022/06/13 02:51:56;;;;;;;5.05;2.83;;;;;;;15.58;83.66;95892.88;4864109;29;20215;-81
2022/06/13 02:54:33;;;;;;;7.10;2.80;;;;;;;15.51;84.08;95886.69;4884026;29;20598;-81
2022/06/13 02:57:24;;;;;;;3.05;2.42;;;;;;;15.42;84.59;95882.47;4918279;29;20182;-81
2022/06/13 03:00:06;;;;;;;4.38;2.55;;;;;;;15.34;85.00;95884.28;4904519;29;20210;-81
2022/06/13 03:02:59;;;;;;;7.75;2.70;;;;;;;15.29;84.37;95882.19;4934568;29;20205;-81
2022/06/13 03:05:49;;;;;;;5.88;3.15;;;;;;;15.33;84.53;95880.84;4934368;29;20210;-81
2022/06/13 03:08:32;;;;;;;5.57;2.90;;;;;;;15.28;83.57;95885.78;4934072;29;20614;-81
2022/06/13 03:11:10;;;;;;;5.60;2.78;;;;;;;15.26;84.26;95887.75;4934611;29;20609;-81
2022/06/13 03:13:59;;;;;;;4.22;2.60;;;;;;;15.19;84.43;95882.34;4918358;29;20646;-80
2022/06/13 03:16:32;;;;;;;7.20;2.58;;;;;;;15.10;85.59;95885.97;4935045;29;20269;-81
2022/06/13 03:19:03;;;;;;;4.72;2.80;;;;;;;15.10;84.65;95883.38;4934527;29;20209;-81
2022/06/13 03:21:38;;;;;;;8.75;3.10;;;;;;;15.11;83.59;95884.22;4935094;29;20185;-81
2022/06/13 03:24:21;;;;;;;8.55;3.10;;;;;;;15.08;83.17;95890.56;4918070;29;20181;-81
2022/06/13 03:26:55;;;;;;;6.07;3.22;;;;;;;15.02;83.56;95884.22;4934323;29;20190;-80
2022/06/13 03:29:25;;;;;;;4.60;2.65;;;;;;;15.12;83.63;95894.50;4934086;29;20568;-81
2022/06/13 03:31:55;;;;;;;5.50;3.15;;;;;;;15.13;84.11;95900.53;4918990;29;20289;-83
2022/06/13 03:34:25;;;;;;;5.53;2.75;;;;;;;15.17;83.58;95899.22;4918173;29;20205;-83
2022/06/13 03:37:01;;;;;;;7.40;2.80;;;;;;;15.17;84.20;95904.44;4934063;29;20448;-83
2022/06/13 03:39:39;;;;;;;6.10;3.08;;;;;;;15.19;83.37;95902.47;4918754;29;20235;-83
2022/06/13 03:42:24;;;;;;;6.15;3.00;;;;;;;15.23;83.22;95898.56;4919398;29;20178;-83
2022/06/13 03:44:57;;;;;;;5.60;3.25;;;;;;;15.24;82.59;95897.56;4934444;29;20174;-82
2022/06/13 03:47:30;;;;;;;4.63;2.40;;;;;;;15.41;82.17;95900.97;4934132;29;20176;-83
2022/06/13 03:50:16;;;;;;;6.03;3.20;;;;;;;15.57;81.65;95903.53;4902912;29;20244;-83
2022/06/13 03:52:45;;;;;;;5.85;2.90;;;;;;;16.30;78.51;95895.28;4918647;29;20186;-82
2022/06/13 03:55:16;;;;;;;8.27;2.55;;;;;;;17.69;72.07;95899.25;4917886;29;20601;-82
2022/06/13 03:57:57;;;;;;;3.85;2.53;;;;;;;18.90;67.96;95898.50;4929341;29;20591;-81
2022/06/13 04:00:28;;;;;;;7.35;2.70;;;;;;;18.65;66.57;95895.50;4964399;28;20193;-81
2022/06/13 04:02:54;;;;;;;6.40;2.60;;;;;;;19.78;64.75;95897.06;4969575;28;20244;-81
2022/06/13 04:05:25;;;;;;;4.88;2.00;;;;;;;20.07;61.31;95907.31;4939294;28;20713;-81
2022/06/13 04:07:51;;;;;;;6.55;2.50;;;;;;;21.17;57.54;95907.88;4970150;28;20185;-81
2022/06/13 04:10:17;;;;;;;5.32;2.40;;;;;;;21.76;54.11;95907.81;4954195;28;20189;-81
2022/06/13 04:13:25;;;;;;;5.10;2.42;;;;;;;22.03;53.49;95919.09;4953948;28;20177;-81
2022/06/13 04:16:05;;;;;;;5.38;2.20;;;;;;;22.60;52.56;95927.97;4938916;28;20220;-80
2022/06/13 04:18:43;;;;;;;3.95;2.30;;;;;;;22.33;52.41;95923.84;4970855;28;20287;-81
2022/06/13 04:21:21;;;;;;;5.18;2.70;;;;;;;23.25;47.29;95927.72;4974810;28;20185;-81
2022/06/13 04:24:17;;;;;;;7.10;3.25;;;;;;;22.36;47.58;95935.88;4959570;28;20188;-81
2022/06/13 04:26:51;;;;;;;9.73;2.97;;;;;;;22.26;47.91;95938.94;4958758;29;20188;-81
2022/06/13 04:29:38;;;;;;;6.32;2.60;;;;;;;22.60;45.47;95935.09;4942737;29;20296;-81
2022/06/13 04:32:09;;;;;;;3.85;2.33;;;;;;;23.57;44.44;95930.28;4974308;28;20713;-81
2022/06/13 04:34:45;;;;;;;5.60;2.42;;;;;;;23.10;44.40;95935.19;4956361;28;20244;-81
2022/06/13 04:37:10;;;;;;;4.28;2.50;;;;;;;23.29;43.84;95928.91;4955749;29;20586;-81
2022/06/13 04:39:37;;;;;;;6.53;2.42;;;;;;;23.20;43.84;95927.56;4922641;29;20315;-82
2022/06/13 04:42:04;;;;;;;7.78;2.65;;;;;;;23.93;42.36;95935.63;4955509;28;20531;-82
2022/06/13 04:44:31;;;;;;;4.60;2.55;;;;;;;24.81;40.87;95928.97;4954947;29;20205;-82
2022/06/13 04:46:57;;;;;;;8.32;2.58;;;;;;;25.41;38.82;95939.50;4980403;28;20249;-80
2022/06/13 04:49:29;;;;;;;6.03;2.47;;;;;;;25.87;38.69;95940.53;4979006;28;20584;-81
2022/06/13 04:51:55;;;;;;;5.60;2.42;;;;;;;25.40;38.67;95953.84;4992333;28;20801;-81
2022/06/13 04:54:34;;;;;;;3.97;2.30;;;;;;;27.80;34.33;95960.00;4971357;28;20253;-81
2022/06/13 04:57:00;;;;;;;4.65;2.38;;;;;;;27.17;36.14;95961.16;4971771;28;20181;-81
2022/06/13 04:59:27;;;;;;;7.30;2.60;;;;;;;27.14;34.34;95974.97;4939334;29;20209;-81
2022/06/13 05:01:52;;;;;;;5.28;2.85;;;;;;;27.04;34.48;95966.81;4971657;28;20177;-82
2022/06/13 05:04:20;;;;;;;5.72;2.70;;;;;;;26.21;36.11;95968.94;4971849;28;20177;-81
2022/06/13 05:06:50;;;;;;;4.57;2.50;;;;;;;27.25;34.09;95971.41;4975166;28;20181;-81
2022/06/13 05:09:29;;;;;;;5.43;2.40;;;;;;;27.12;34.78;95970.91;4942977;29;20665;-81
2022/06/13 05:12:07;;;;;;;5.75;2.50;;;;;;;28.05;34.70;95977.41;4958236;28;20181;-81
2022/06/13 05:14:50;;;;;;;5.88;2.92;;;;;;;27.06;35.52;95986.84;4957655;28;20180;-81
2022/06/13 05:17:29;;;;;;;4.47;2.17;;;;;;;27.59;34.38;95984.75;4955846;28;20177;-81
2022/06/13 05:20:05;;;;;;;7.22;2.60;;;;;;;26.74;36.14;95989.16;4917372;29;20210;-82
2022/06/13 05:22:45;;;;;;;7.50;2.83;;;;;;;27.02;35.01;95990.19;4921744;29;20272;-82
2022/06/13 05:25:32;;;;;;;7.55;2.10;;;;;;;27.17;35.76;95998.47;4939742;29;20582;-82
2022/06/13 05:27:59;;;;;;;5.60;2.17;;;;;;;27.88;34.00;95999.59;4935028;29;20212;-81
2022/06/13 05:30:24;;;;;;;6.15;2.58;;;;;;;27.26;34.63;95990.88;4941126;28;20217;-81
2022/06/13 05:32:49;;;;;;;7.55;2.50;;;;;;;26.91;35.09;96001.72;4935897;29;20189;-81
2022/06/13 05:35:24;;;;;;;4.88;2.55;;;;;;;27.38;33.97;96000.41;4940383;29;20177;-81
2022/06/13 05:37:50;;;;;;;7.50;2.63;;;;;;;27.43;34.43;96007.69;4939872;28;20200;-81
2022/06/13 05:40:18;;;;;;;8.38;2.88;;;;;;;27.18;33.47;96007.28;4938918;29;20200;-81
2022/06/13 05:42:45;;;;;;;7.00;2.70;;;;;;;27.93;31.90;96006.91;4939331;29;20265;-81
2022/06/13 05:45:15;;;;;;;8.68;2.75;;;;;;;27.30;33.26;96006.19;4938715;29;20177;-81
2022/06/13 05:47:41;;;;;;;5.57;2.40;;;;;;;27.16;33.74;96006.72;4922915;28;20185;-81
2022/06/13 05:50:13;;;;;;;7.05;2.67;;;;;;;28.67;30.80;96014.53;4939148;29;20192;-80
2022/06/13 05:52:38;;;;;;;7.75;2.60;;;;;;;27.78;32.98;96014.66;4955733;28;20261;-80
2022/06/13 05:55:04;;;;;;;6.63;2.58;;;;;;;27.40;33.41;96020.72;4938291;29;20189;-81
2022/06/13 05:57:30;;;;;;;5.10;2.92;;;;;;;26.73;33.33;96032.03;4922922;29;20720;-80
2022/06/13 05:59:55;;;;;;;9.27;2.65;;;;;;;27.20;33.80;96034.50;4938515;29;20239;-81
2022/06/13 06:02:20;;;;;;;7.00;2.55;;;;;;;27.11;32.92;96031.41;4938025;29;20196;-80
2022/06/13 06:04:46;;;;;;;7.82;2.85;;;;;;;27.34;33.41;96035.81;4937809;29;20185;-80
2022/06/13 06:07:11;;;;;;;6.45;2.72;;;;;;;27.20;33.87;96035.31;4956843;28;20193;-81
2022/06/13 06:09:36;;;;;;;4.82;2.40;;;;;;;27.29;33.01;96039.19;4938666;29;20256;-81
2022/06/13 06:12:02;;;;;;;6.13;2.92;;;;;;;27.50;31.70;96039.56;4938616;29;20541;-81
2022/06/13 06:14:27;;;;;;;7.93;2.60;;;;;;;27.11;33.25;96034.06;4932132;29;20208;-81
2022/06/13 06:16:52;;;;;;;4.63;2.45;;;;;;;27.55;31.84;96044.97;4944395;28;20565;-80
2022/06/13 06:19:18;;;;;;;7.43;2.97;;;;;;;26.39;33.76;96039.06;4955997;28;20224;-80
2022/06/13 06:21:43;;;;;;;6.82;2.92;;;;;;;26.03;34.53;96043.59;4956646;29;20192;-80
2022/06/13 06:24:08;;;;;;;6.65;2.97;;;;;;;25.13;35.57;96046.47;4938880;29;20197;-81
2022/06/13 06:26:33;;;;;;;6.20;2.80;;;;;;;26.56;33.20;96044.47;4957296;29;20200;-80
2022/06/13 06:28:59;;;;;;;7.35;3.10;;;;;;;25.98;34.54;96043.50;4939653;29;20217;-80
2022/06/13 06:31:24;;;;;;;8.85;3.15;;;;;;;26.73;34.13;96048.00;4938369;29;20247;-81
2022/06/13 06:33:49;;;;;;;6.85;2.70;;;;;;;27.61;32.09;96057.34;4936710;29;20192;-81
2022/06/13 06:36:15;;;;;;;6.78;2.85;;;;;;;26.83;34.22;96056.19;4955238;28;20192;-80
2022/06/13 06:38:40;;;;;;;7.50;3.03;;;;;;;25.87;35.04;96057.59;4938757;29;20613;-80
2022/06/13 06:41:05;;;;;;;6.72;3.00;;;;;;;27.49;32.26;96065.41;4937860;29;20312;-80
2022/06/13 06:43:31;;;;;;;9.35;3.13;;;;;;;26.83;33.06;96066.84;4969869;28;20181;-80
2022/06/13 06:45:56;;;;;;;6.07;3.20;;;;;;;27.28;32.51;96069.56;4969235;28;20277;-81
2022/06/13 06:48:23;;;;;;;7.95;3.22;;;;;;;26.73;33.25;96061.31;4937554;29;20205;-80
2022/06/13 06:50:49;;;;;;;9.45;3.00;;;;;;;27.21;32.75;96068.94;4936786;28;20196;-80
2022/06/13 06:53:18;;;;;;;7.93;3.17;;;;;;;27.02;32.43;96067.47;4922129;29;20177;-80
2022/06/13 07:01:15;;;;;;;5.05;2.80;;;;;;;27.10;32.58;96064.44;4930023;29;20200;-80
2022/06/13 07:03:40;;;;;;;7.22;3.05;;;;;;;27.49;32.33;96065.41;4937189;29;20276;-80
2022/06/13 07:06:07;;;;;;;6.75;2.97;;;;;;;27.10;31.77;96067.13;4931774;29;20213;-80
2022/06/13 07:08:33;;;;;;;6.60;3.08;;;;;;;27.15;32.52;96064.56;4938363;29;20684;-79
2022/06/13 07:13:47;;;;;;;9.82;3.10;;;;;;;27.59;31.79;96067.44;4944342;28;20345;-79
2022/06/13 07:16:13;;;;;;;9.82;2.95;;;;;;;27.25;31.37;96059.41;4957381;29;20271;-79
2022/06/13 07:18:38;;;;;;;4.32;2.85;;;;;;;26.83;32.57;96066.84;4942770;29;20313;-81
2022/06/13 07:21:03;;;;;;;8.65;2.70;;;;;;;27.29;31.51;96068.53;4939529;29;20188;-81
2022/06/13 07:23:29;;;;;;;10.48;2.92;;;;;;;27.26;31.56;96074.34;4937796;29;20268;-81
2022/06/13 07:25:54;;;;;;;10.77;3.20;;;;;;;26.22;32.63;96077.00;4937793;29;20215;-81
2022/06/13 07:28:19;;;;;;;19.55;3.63;;;;;;;26.60;33.15;96082.91;4954780;28;20213;-81
2022/06/13 07:30:48;;;;;;;7.70;2.70;;;;;;;26.57;32.11;96073.53;4938356;29;20192;-81
2022/06/13 07:33:13;;;;;;;8.82;3.42;;;;;;;26.76;31.92;96082.97;4937930;29;20658;-81
2022/06/13 07:35:38;;;;;;;8.15;3.35;;;;;;;26.43;31.75;96096.16;4937272;29;20192;-81
2022/06/13 07:38:19;;;;;;;7.32;3.17;;;;;;;25.22;33.48;96084.16;4929985;29;20209;-80
2022/06/13 07:40:46;;;;;;;6.72;2.90;;;;;;;25.22;34.99;96090.28;4931549;29;20669;-81
2022/06/13 07:43:21;;;;;;;7.70;3.25;;;;;;;26.01;32.38;96090.91;4947298;29;20222;-81
2022/06/13 07:45:46;;;;;;;5.93;2.88;;;;;;;24.68;35.32;96086.66;4929164;29;20188;-80
2022/06/13 07:48:12;;;;;;;6.88;2.88;;;;;;;25.44;34.04;96090.56;4953920;28;20209;-81
2022/06/13 07:50:37;;;;;;;7.07;2.72;;;;;;;25.47;33.81;96095.44;4935099;29;20374;-80
2022/06/13 07:53:02;;;;;;;6.50;2.72;;;;;;;25.50;34.30;96089.66;4911504;28;20178;-81
2022/06/13 07:55:30;;;;;;;8.68;3.53;;;;;;;25.25;35.16;96089.81;4955635;28;20196;-81
2022/06/13 07:57:55;;;;;;;10.27;3.28;;;;;;;24.85;36.25;96081.56;4934284;28;20212;-81
2022/06/13 08:00:25;;;;;;;6.70;3.08;;;;;;;24.81;34.80;96086.50;4943017;29;20205;-80
2022/06/13 08:02:51;;;;;;;7.43;3.15;;;;;;;25.10;34.99;96078.81;4960936;28;20237;-80
2022/06/13 08:05:16;;;;;;;6.35;3.22;;;;;;;24.79;34.97;96082.44;4959996;28;20169;-78
2022/06/13 08:07:41;;;;;;;7.00;2.60;;;;;;;25.44;34.54;96082.59;4977572;28;20228;-81
2022/06/13 08:10:07;;;;;;;29.15;5.25;;;;;;;24.96;34.99;96093.28;4960732;28;20174;-79
2022/06/13 08:12:32;;;;;;;9.30;2.90;;;;;;;25.12;34.05;96098.81;4951199;29;20193;-81
2022/06/13 08:14:57;;;;;;;6.78;2.67;;;;;;;24.91;35.33;96093.13;4937585;29;20200;-81
2022/06/13 08:17:23;;;;;;;6.22;2.92;;;;;;;24.37;35.07;96094.78;4937114;29;20236;-80
2022/06/13 08:19:50;;;;;;;6.60;2.70;;;;;;;23.42;36.89;96098.41;4936466;29;20561;-78
2022/06/13 08:22:18;;;;;;;4.82;2.50;;;;;;;24.24;36.01;96098.38;4936196;29;20606;-80
2022/06/13 08:24:43;;;;;;;12.65;3.22;;;;;;;23.42;37.07;96098.41;4920197;28;20240;-80
2022/06/13 08:27:08;;;;;;;8.65;3.00;;;;;;;23.17;37.35;96097.56;4919979;29;20506;-80
2022/06/13 08:29:34;;;;;;;5.72;2.70;;;;;;;23.37;38.48;96100.88;4935479;29;20289;-78
2022/06/13 08:32:00;;;;;;;7.88;3.15;;;;;;;22.93;38.46;96095.63;4920510;29;20208;-79
2022/06/13 08:34:26;;;;;;;7.32;3.10;;;;;;;22.06;38.99;96095.03;4936864;29;20205;-79
2022/06/13 08:36:52;;;;;;;8.82;2.58;;;;;;;22.83;40.14;96106.66;4919962;29;20212;-78
2022/06/13 08:39:17;;;;;;;8.45;3.35;;;;;;;22.67;39.48;96104.47;4921249;29;20209;-79
2022/06/13 08:41:58;;;;;;;9.80;3.13;;;;;;;22.41;38.70;96100.09;4921089;29;20516;-78
2022/06/13 08:44:47;;;;;;;8.88;2.72;;;;;;;22.64;38.24;96100.41;4936584;29;20188;-78
2022/06/13 08:47:20;;;;;;;5.15;2.63;;;;;;;22.15;39.87;96104.41;4920788;29;20186;-78
2022/06/13 08:50:01;;;;;;;7.90;2.70;;;;;;;22.26;39.13;96108.25;4936212;29;20204;-80
2022/06/13 08:52:28;;;;;;;6.10;2.60;;;;;;;22.42;40.43;96104.34;4923285;29;20181;-78
2022/06/13 08:55:17;;;;;;;7.80;2.90;;;;;;;22.46;41.27;96113.50;4936551;29;20285;-79
2022/06/13 08:57:47;;;;;;;7.90;3.13;;;;;;;22.62;40.61;96107.78;4935614;28;20181;-78
2022/06/13 09:00:15;;;;;;;7.78;3.58;;;;;;;23.22;40.44;96116.25;4936604;28;20305;-78
2022/06/13 09:02:52;;;;;;;7.93;3.58;;;;;;;22.30;39.92;96120.88;4936930;29;20652;-78
2022/06/13 09:05:55;;;;;;;6.85;2.85;;;;;;;23.21;40.31;96116.47;4936551;28;20232;-79
2022/06/13 09:08:53;;;;;;;9.35;2.92;;;;;;;22.42;39.28;96128.16;4938884;29;20208;-78
2022/06/13 09:11:22;;;;;;;8.40;3.10;;;;;;;22.71;39.41;96122.41;4924784;29;20193;-79
2022/06/13 09:14:08;;;;;;;8.43;3.00;;;;;;;22.93;37.93;96122.13;4940735;29;20280;-79
2022/06/13 09:16:35;;;;;;;8.32;3.28;;;;;;;22.84;37.65;96127.66;4956954;28;20185;-79
2022/06/13 09:19:22;;;;;;;7.95;3.17;;;;;;;21.65;41.33;96134.94;4922551;29;20205;-79
2022/06/13 09:22:04;;;;;;;6.25;2.58;;;;;;;22.61;41.32;96122.00;4922992;29;20196;-80
2022/06/13 09:24:40;;;;;;;6.30;3.08;;;;;;;21.51;41.14;96114.78;4934579;29;20264;-79
2022/06/13 09:27:10;;;;;;;4.97;2.40;;;;;;;21.67;38.45;96123.13;4950884;29;20297;-79
2022/06/13 09:29:48;;;;;;;6.03;3.30;;;;;;;21.46;41.03;96124.09;4933504;29;20201;-80
2022/06/13 09:32:19;;;;;;;5.43;3.00;;;;;;;21.73;42.19;96119.69;4933347;29;20669;-79
2022/06/13 09:34:57;;;;;;;5.53;2.70;;;;;;;21.93;39.37;96111.75;4927817;29;20189;-79
2022/06/13 09:37:36;;;;;;;6.63;2.42;;;;;;;22.17;38.72;96123.53;4942346;28;20189;-80
2022/06/13 09:40:02;;;;;;;7.22;2.45;;;;;;;22.40;38.78;96116.97;4924720;29;20220;-80
2022/06/13 09:42:41;;;;;;;8.75;2.75;;;;;;;22.36;36.85;96119.25;4924733;29;20217;-80
2022/06/13 09:45:30;;;;;;;4.65;2.00;;;;;;;22.66;35.12;96113.44;4943717;29;20200;-79
2022/06/13 09:48:03;;;;;;;6.10;2.83;;;;;;;22.75;34.72;96117.47;4960730;28;20299;-80
2022/06/13 09:50:43;;;;;;;7.15;3.28;;;;;;;21.49;37.45;96125.56;4959964;29;20217;-80
2022/06/13 09:53:57;;;;;;;7.22;2.72;;;;;;;21.60;38.84;96117.03;4942184;29;20181;-79
2022/06/13 09:56:35;;;;;;;6.45;2.70;;;;;;;21.71;40.17;96116.41;4916870;29;20202;-80
2022/06/13 09:59:15;;;;;;;8.95;2.50;;;;;;;22.14;39.95;96116.00;4896896;29;20344;-79
2022/06/13 10:01:51;;;;;;;4.88;2.25;;;;;;;22.47;38.78;96113.31;4886443;29;20189;-79
2022/06/13 10:04:20;;;;;;;5.85;2.60;;;;;;;22.95;37.82;96110.28;4917461;29;20220;-79
2022/06/13 10:06:54;;;;;;;7.80;2.92;;;;;;;22.72;36.13;96113.44;4918091;29;20205;-79
2022/06/13 10:09:40;;;;;;;8.18;2.80;;;;;;;22.57;37.63;96115.50;4885453;29;20210;-79
2022/06/13 10:12:31;;;;;;;9.52;3.00;;;;;;;22.30;38.84;96115.56;4900202;29;20210;-79
2022/06/13 10:15:18;;;;;;;4.85;2.50;;;;;;;22.44;38.82;96110.25;4884109;29;20283;-78
2022/06/13 10:17:57;;;;;;;5.10;2.25;;;;;;;22.79;38.44;96108.94;4916154;29;20347;-79
2022/06/13 10:20:56;;;;;;;6.78;2.20;;;;;;;23.27;36.24;96121.75;4900196;29;20206;-78
2022/06/13 10:23:52;;;;;;;6.82;2.25;;;;;;;23.12;34.97;96116.72;4901328;29;20190;-79
2022/06/13 10:26:30;;;;;;;4.72;2.17;;;;;;;22.51;36.56;96116.34;4893133;29;20722;-80
2022/06/13 10:29:19;;;;;;;7.78;3.00;;;;;;;21.83;37.22;96126.41;4911978;29;20202;-79
2022/06/13 10:32:00;;;;;;;5.72;2.58;;;;;;;22.10;37.46;96117.47;4928122;29;20201;-80
2022/06/13 10:34:36;;;;;;;5.38;2.28;;;;;;;21.89;38.97;96125.56;4920353;29;20195;-79
2022/06/13 10:37:16;;;;;;;5.45;2.28;;;;;;;22.15;39.08;96120.28;4935909;29;20185;-81
2022/06/13 10:39:42;;;;;;;7.53;2.33;;;;;;;22.00;37.89;96115.19;4934571;29;20685;-79
2022/06/13 10:42:15;;;;;;;4.90;2.40;;;;;;;22.50;36.50;96117.34;4918971;29;20368;-80
2022/06/13 10:44:40;;;;;;;6.00;2.30;;;;;;;22.82;35.76;96119.09;4933806;29;20192;-79
2022/06/13 10:47:14;;;;;;;3.90;2.15;;;;;;;22.64;37.09;96113.66;4920016;29;20189;-79
2022/06/13 10:49:43;;;;;;;4.22;2.38;;;;;;;22.45;37.04;96112.69;4919655;29;20197;-79
2022/06/13 10:52:15;;;;;;;3.78;1.85;;;;;;;22.80;36.25;96113.19;4935665;29;20227;-80
2022/06/13 10:54:47;;;;;;;4.95;1.90;;;;;;;22.96;36.23;96113.75;4934783;28;20185;-81
2022/06/13 10:57:27;;;;;;;7.25;2.20;;;;;;;22.36;39.59;96118.44;4920415;29;20557;-80
2022/06/13 11:00:10;;;;;;;4.38;1.80;;;;;;;22.13;36.74;96119.69;4904262;29;20217;-79
2022/06/13 11:02:35;;;;;;;3.25;2.00;;;;;;;22.02;36.43;96110.50;4921769;29;20189;-80
2022/06/13 11:05:13;;;;;;;4.88;2.13;;;;;;;21.81;37.56;96120.47;4934669;29;20193;-80
2022/06/13 11:08:10;;;;;;;4.82;2.03;;;;;;;22.59;36.06;96116.91;4919856;28;20193;-80
2022/06/13 11:10:51;;;;;;;5.07;1.80;;;;;;;22.86;36.35;96120.31;4920871;29;20189;-79
2022/06/13 11:13:24;;;;;;;3.85;2.05;;;;;;;22.47;36.57;96131.81;4917659;29;20208;-80
2022/06/13 11:24:34;;;;;;;5.70;2.05;;;;;;;23.46;33.99;96120.81;4931073;29;20200;-80
2022/06/13 11:29:43;;;;;;;3.83;1.88;;;;;;;23.87;34.41;96119.53;4940872;29;20215;-79
2022/06/13 11:32:21;;;;;;;6.63;2.13;;;;;;;23.79;34.10;96119.78;4937745;28;20280;-79
2022/06/13 11:34:46;;;;;;;5.55;2.33;;;;;;;23.85;35.01;96113.59;4937677;29;20191;-80
2022/06/13 11:37:11;;;;;;;3.83;2.20;;;;;;;23.20;36.23;96117.50;4940616;29;20181;-80
2022/06/13 11:39:42;;;;;;;5.53;2.03;;;;;;;23.10;34.80;96131.22;4957727;28;20213;-79
2022/06/13 11:42:32;;;;;;;3.67;2.00;;;;;;;23.26;33.19;96130.72;4940122;29;20937;-79
2022/06/13 11:45:02;;;;;;;5.53;2.00;;;;;;;23.28;33.30;96117.25;4933573;29;20193;-79
2022/06/13 11:47:43;;;;;;;5.32;1.92;;;;;;;23.45;34.39;96123.66;4944652;29;20181;-79
2022/06/13 11:50:23;;;;;;;9.10;2.17;;;;;;;24.19;33.23;96114.13;4934898;29;20533;-79
2022/06/13 11:55:49;;;;;;;4.93;1.85;;;;;;;24.41;32.12;96119.88;4944282;29;20195;-79
2022/06/13 11:58:19;;;;;;;4.65;2.17;;;;;;;24.24;33.25;96122.25;4942491;29;20490;-79
2022/06/13 12:00:51;;;;;;;5.63;2.35;;;;;;;23.70;32.82;96126.38;4943360;29;20268;-78
2022/06/13 12:03:22;;;;;;;5.88;1.80;;;;;;;24.11;32.03;96120.50;4942341;29;20181;-79
2022/06/13 12:05:50;;;;;;;4.95;2.15;;;;;;;24.47;33.06;96117.16;4943725;29;20208;-79
2022/06/13 12:08:17;;;;;;;4.82;2.28;;;;;;;24.37;31.68;96110.69;4942097;29;20268;-78
2022/06/13 12:11:00;;;;;;;4.72;1.90;;;;;;;24.64;30.96;96114.69;4924763;28;20236;-79
2022/06/13 12:13:28;;;;;;;3.85;1.58;;;;;;;23.94;31.25;96107.03;4925493;29;20189;-79
2022/06/13 12:16:05;;;;;;;6.53;1.55;;;;;;;24.83;31.07;96120.81;4924637;29;20212;-80
2022/06/13 12:18:46;;;;;;;2.97;1.92;;;;;;;24.29;30.70;96112.59;4928167;29;20276;-79
2022/06/13 12:21:26;;;;;;;7.32;1.77;;;;;;;24.67;30.28;96121.41;4942164;28;20181;-79
2022/06/13 12:23:59;;;;;;;3.58;1.52;;;;;;;24.43;31.22;96115.94;4940420;29;20224;-79
2022/06/13 12:26:36;;;;;;;5.13;2.20;;;;;;;24.24;29.82;96124.91;4925376;29;20217;-79
2022/06/13 12:29:07;;;;;;;6.50;1.90;;;;;;;24.61;29.91;96125.75;4939383;29;20197;-80